sensor_id;sensor_type;location;lat;lon;timestamp;pressure;altitude;pressure_sealevel;temperature;humidity
32933;BME280;19444;50.518;10.870;2022-08-19T00:02:30;96050.59;;;19.62;100.00
32933;BME280;19444;50.518;10.870;2022-08-19T00:05:27;96051.34;;;19.58;100.00
32933;BME280;19444;50.518;10.870;2022-08-19T00:08:24;96045.75;;;19.44;100.00
32933;BME280;19444;50.518;10.870;2022-08-19T00:11:21;96034.19;;;19.51;100.00
32933;BME280;19444;50.518;10.870;2022-08-19T00:14:24;96027.50;;;19.45;100.00
32933;BME280;19444;50.518;10.870;2022-08-19T00:17:21;96030.22;;;19.41;100.00
32933;BME280;19444;50.518;10.870;2022-08-19T00:20:21;96025.19;;;19.43;100.00
32933;BME280;19444;50.518;10.870;2022-08-19T00:23:18;96010.09;;;19.53;100.00
32933;BME280;19444;50.518;10.870;2022-08-19T00:26:15;96001.56;;;19.54;100.00
32933;BME280;19444;50.518;10.870;2022-08-19T00:29:16;96003.84;;;19.45;100.00
32933;BME280;19444;50.518;10.870;2022-08-19T00:32:13;96000.00;;;19.50;100.00
32933;BME280;19444;50.518;10.870;2022-08-19T00:35:13;96005.97;;;19.66;100.00
32933;BME280;19444;50.518;10.870;2022-08-19T00:38:10;95998.69;;;19.33;100.00
32933;BME280;19444;50.518;10.870;2022-08-19T00:41:08;96010.66;;;19.25;100.00
32933;BME280;19444;50.518;10.870;2022-08-19T00:44:28;96007.16;;;19.21;100.00
32933;BME280;19444;50.518;10.870;2022-08-19T00:47:25;96001.72;;;19.21;100.00
32933;BME280;19444;50.518;10.870;2022-08-19T00:50:23;95997.47;;;19.23;100.00
32933;BME280;19444;50.518;10.870;2022-08-19T00:53:24;95990.81;;;19.17;100.00
32933;BME280;19444;50.518;10.870;2022-08-19T00:56:23;95999.78;;;19.21;100.00
32933;BME280;19444;50.518;10.870;2022-08-19T00:59:20;95992.72;;;19.13;100.00
32933;BME280;19444;50.518;10.870;2022-08-19T01:02:38;95986.50;;;19.13;100.00
32933;BME280;19444;50.518;10.870;2022-08-19T01:05:36;95980.72;;;19.18;100.00
32933;BME280;19444;50.518;10.870;2022-08-19T01:08:34;95974.41;;;19.07;100.00
32933;BME280;19444;50.518;10.870;2022-08-19T01:11:40;95978.97;;;18.95;100.00
32933;BME280;19444;50.518;10.870;2022-08-19T01:14:39;95969.44;;;19.12;100.00
32933;BME280;19444;50.518;10.870;2022-08-19T01:17:39;95980.66;;;19.11;100.00
32933;BME280;19444;50.518;10.870;2022-08-19T01:20:39;95967.81;;;19.04;100.00
32933;BME280;19444;50.518;10.870;2022-08-19T01:23:37;95968.91;;;18.96;100.00
32933;BME280;19444;50.518;10.870;2022-08-19T01:26:42;95980.34;;;19.19;100.00
32933;BME280;19444;50.518;10.870;2022-08-19T01:29:43;95985.06;;;19.26;100.00
32933;BME280;19444;50.518;10.870;2022-08-19T01:32:41;95992.41;;;19.22;100.00
32933;BME280;19444;50.518;10.870;2022-08-19T01:35:41;95979.53;;;19.15;100.00
32933;BME280;19444;50.518;10.870;2022-08-19T01:38:40;95979.78;;;18.99;100.00
32933;BME280;19444;50.518;10.870;2022-08-19T01:41:40;95977.91;;;19.03;100.00
32933;BME280;19444;50.518;10.870;2022-08-19T01:44:39;95974.03;;;19.08;100.00
32933;BME280;19444;50.518;10.870;2022-08-19T01:47:37;95962.88;;;19.17;100.00
32933;BME280;19444;50.518;10.870;2022-08-19T01:50:35;95971.78;;;19.17;100.00
32933;BME280;19444;50.518;10.870;2022-08-19T01:53:33;95960.81;;;19.03;100.00
32933;BME280;19444;50.518;10.870;2022-08-19T01:56:29;95960.06;;;19.06;100.00
32933;BME280;19444;50.518;10.870;2022-08-19T01:59:27;95958.50;;;19.05;100.00
32933;BME280;19444;50.518;10.870;2022-08-19T02:02:24;95954.63;;;19.02;100.00
32933;BME280;19444;50.518;10.870;2022-08-19T02:05:21;95947.31;;;19.14;100.00
32933;BME280;19444;50.518;10.870;2022-08-19T02:08:19;95961.38;;;19.26;100.00
32933;BME280;19444;50.518;10.870;2022-08-19T02:11:33;95946.00;;;18.93;100.00
32933;BME280;19444;50.518;10.870;2022-08-19T02:14:30;95950.59;;;18.89;100.00
32933;BME280;19444;50.518;10.870;2022-08-19T02:17:28;95962.63;;;18.92;100.00
32933;BME280;19444;50.518;10.870;2022-08-19T02:20:25;95962.31;;;18.97;100.00
32933;BME280;19444;50.518;10.870;2022-08-19T02:23:22;95967.66;;;18.86;100.00
32933;BME280;19444;50.518;10.870;2022-08-19T02:26:20;95960.69;;;18.89;100.00
32933;BME280;19444;50.518;10.870;2022-08-19T02:29:17;95969.31;;;18.98;100.00
32933;BME280;19444;50.518;10.870;2022-08-19T02:32:15;95983.53;;;18.84;100.00
32933;BME280;19444;50.518;10.870;2022-08-19T02:35:13;95993.38;;;18.99;100.00
32933;BME280;19444;50.518;10.870;2022-08-19T02:38:10;96005.72;;;18.93;100.00
32933;BME280;19444;50.518;10.870;2022-08-19T02:41:26;96010.38;;;18.93;100.00
32933;BME280;19444;50.518;10.870;2022-08-19T02:44:24;96004.53;;;18.91;100.00
32933;BME280;19444;50.518;10.870;2022-08-19T02:47:27;96003.81;;;18.94;100.00
32933;BME280;19444;50.518;10.870;2022-08-19T02:50:24;96011.16;;;18.93;100.00
32933;BME280;19444;50.518;10.870;2022-08-19T02:53:26;96008.63;;;18.74;100.00
32933;BME280;19444;50.518;10.870;2022-08-19T02:56:24;96008.75;;;18.85;100.00
32933;BME280;19444;50.518;10.870;2022-08-19T02:59:24;96024.06;;;18.66;100.00
32933;BME280;19444;50.518;10.870;2022-08-19T03:02:22;96032.22;;;18.66;100.00
32933;BME280;19444;50.518;10.870;2022-08-19T03:05:19;96027.28;;;18.79;100.00
32933;BME280;19444;50.518;10.870;2022-08-19T03:08:37;96035.47;;;18.83;100.00
32933;BME280;19444;50.518;10.870;2022-08-19T03:11:34;96053.94;;;18.70;100.00
32933;BME280;19444;50.518;10.870;2022-08-19T03:14:35;96038.00;;;18.65;100.00
32933;BME280;19444;50.518;10.870;2022-08-19T03:17:33;96046.47;;;18.63;100.00
32933;BME280;19444;50.518;10.870;2022-08-19T03:20:30;96048.84;;;18.65;100.00
32933;BME280;19444;50.518;10.870;2022-08-19T03:23:27;96056.44;;;18.52;100.00
32933;BME280;19444;50.518;10.870;2022-08-19T03:26:25;96059.69;;;18.65;100.00
32933;BME280;19444;50.518;10.870;2022-08-19T03:29:23;96068.34;;;18.44;100.00
32933;BME280;19444;50.518;10.870;2022-08-19T03:32:26;96065.63;;;18.44;100.00
32933;BME280;19444;50.518;10.870;2022-08-19T03:35:29;96072.44;;;18.61;100.00
32933;BME280;19444;50.518;10.870;2022-08-19T03:38:25;96073.22;;;18.61;100.00
32933;BME280;19444;50.518;10.870;2022-08-19T03:41:38;96072.81;;;18.59;100.00
32933;BME280;19444;50.518;10.870;2022-08-19T03:44:41;96075.91;;;18.61;100.00
32933;BME280;19444;50.518;10.870;2022-08-19T03:47:41;96077.03;;;18.57;100.00
32933;BME280;19444;50.518;10.870;2022-08-19T03:50:40;96073.06;;;18.47;100.00
32933;BME280;19444;50.518;10.870;2022-08-19T03:53:37;96079.56;;;18.42;100.00
32933;BME280;19444;50.518;10.870;2022-08-19T03:56:38;96088.00;;;18.37;100.00
32933;BME280;19444;50.518;10.870;2022-08-19T03:59:36;96082.78;;;18.52;100.00
32933;BME280;19444;50.518;10.870;2022-08-19T04:02:33;96080.44;;;18.50;100.00
32933;BME280;19444;50.518;10.870;2022-08-19T04:05:30;96083.19;;;18.54;100.00
32933;BME280;19444;50.518;10.870;2022-08-19T04:08:27;96083.31;;;18.64;100.00
32933;BME280;19444;50.518;10.870;2022-08-19T04:11:31;96080.53;;;18.57;100.00
32933;BME280;19444;50.518;10.870;2022-08-19T04:14:40;96090.16;;;18.51;100.00
32933;BME280;19444;50.518;10.870;2022-08-19T04:17:37;96083.84;;;18.43;100.00
32933;BME280;19444;50.518;10.870;2022-08-19T04:20:40;96084.69;;;18.47;100.00
32933;BME280;19444;50.518;10.870;2022-08-19T04:23:37;96078.63;;;18.61;100.00
32933;BME280;19444;50.518;10.870;2022-08-19T04:26:42;96075.03;;;18.50;100.00
32933;BME280;19444;50.518;10.870;2022-08-19T04:29:39;96074.38;;;18.60;100.00
32933;BME280;19444;50.518;10.870;2022-08-19T04:32:36;96067.56;;;18.73;100.00
32933;BME280;19444;50.518;10.870;2022-08-19T04:35:46;96072.84;;;18.63;100.00
32933;BME280;19444;50.518;10.870;2022-08-19T04:38:43;96061.69;;;18.68;100.00
32933;BME280;19444;50.518;10.870;2022-08-19T04:41:40;96067.31;;;18.56;100.00
32933;BME280;19444;50.518;10.870;2022-08-19T04:44:56;96065.31;;;18.49;100.00
32933;BME280;19444;50.518;10.870;2022-08-19T04:47:55;96060.03;;;18.63;100.00
32933;BME280;19444;50.518;10.870;2022-08-19T04:51:14;96061.94;;;18.59;100.00
32933;BME280;19444;50.518;10.870;2022-08-19T04:54:12;96059.88;;;18.49;100.00
32933;BME280;19444;50.518;10.870;2022-08-19T04:57:09;96048.78;;;18.61;100.00
32933;BME280;19444;50.518;10.870;2022-08-19T05:00:08;96045.13;;;18.77;100.00
32933;BME280;19444;50.518;10.870;2022-08-19T05:03:06;96042.56;;;18.61;100.00
32933;BME280;19444;50.518;10.870;2022-08-19T05:06:09;96044.25;;;18.69;100.00
32933;BME280;19444;50.518;10.870;2022-08-19T05:09:07;96042.72;;;18.71;100.00
32933;BME280;19444;50.518;10.870;2022-08-19T05:12:04;96047.09;;;18.50;100.00
32933;BME280;19444;50.518;10.870;2022-08-19T05:15:05;96050.69;;;18.57;100.00
32933;BME280;19444;50.518;10.870;2022-08-19T05:18:02;96045.41;;;18.68;100.00
32933;BME280;19444;50.518;10.870;2022-08-19T05:21:19;96038.81;;;18.69;100.00
32933;BME280;19444;50.518;10.870;2022-08-19T05:24:36;96037.34;;;18.75;100.00
32933;BME280;19444;50.518;10.870;2022-08-19T05:27:53;96052.44;;;18.72;100.00
32933;BME280;19444;50.518;10.870;2022-08-19T05:30:50;96057.44;;;18.70;100.00
32933;BME280;19444;50.518;10.870;2022-08-19T05:33:47;96066.25;;;18.94;100.00
32933;BME280;19444;50.518;10.870;2022-08-19T05:36:45;96071.69;;;18.94;100.00
32933;BME280;19444;50.518;10.870;2022-08-19T05:39:42;96067.88;;;19.02;100.00
32933;BME280;19444;50.518;10.870;2022-08-19T05:42:42;96076.56;;;19.18;100.00
32933;BME280;19444;50.518;10.870;2022-08-19T05:45:40;96084.59;;;19.04;100.00
32933;BME280;19444;50.518;10.870;2022-08-19T05:48:37;96095.84;;;19.06;100.00
32933;BME280;19444;50.518;10.870;2022-08-19T05:51:36;96100.81;;;18.97;100.00
32933;BME280;19444;50.518;10.870;2022-08-19T05:54:34;96096.66;;;19.10;100.00
32933;BME280;19444;50.518;10.870;2022-08-19T05:57:34;96097.91;;;19.16;100.00
32933;BME280;19444;50.518;10.870;2022-08-19T06:00:31;96121.97;;;19.18;100.00
32933;BME280;19444;50.518;10.870;2022-08-19T06:03:28;96116.63;;;19.25;100.00
32933;BME280;19444;50.518;10.870;2022-08-19T06:06:25;96124.78;;;19.28;100.00
32933;BME280;19444;50.518;10.870;2022-08-19T06:09:22;96127.78;;;19.16;100.00
32933;BME280;19444;50.518;10.870;2022-08-19T06:12:20;96126.91;;;19.46;100.00
32933;BME280;19444;50.518;10.870;2022-08-19T06:15:28;96129.94;;;19.37;100.00
32933;BME280;19444;50.518;10.870;2022-08-19T06:18:25;96151.66;;;19.37;100.00
32933;BME280;19444;50.518;10.870;2022-08-19T06:21:24;96162.47;;;19.30;100.00
32933;BME280;19444;50.518;10.870;2022-08-19T06:24:25;96164.72;;;19.21;100.00
32933;BME280;19444;50.518;10.870;2022-08-19T06:27:22;96161.56;;;19.19;100.00
32933;BME280;19444;50.518;10.870;2022-08-19T06:30:19;96159.75;;;19.30;100.00
32933;BME280;19444;50.518;10.870;2022-08-19T06:33:16;96165.19;;;19.30;100.00
32933;BME280;19444;50.518;10.870;2022-08-19T06:36:23;96163.19;;;19.27;100.00
32933;BME280;19444;50.518;10.870;2022-08-19T06:39:26;96171.69;;;19.22;100.00
32933;BME280;19444;50.518;10.870;2022-08-19T06:42:23;96170.56;;;19.26;100.00
32933;BME280;19444;50.518;10.870;2022-08-19T06:45:24;96172.19;;;19.31;100.00
32933;BME280;19444;50.518;10.870;2022-08-19T06:48:31;96170.94;;;19.25;100.00
32933;BME280;19444;50.518;10.870;2022-08-19T06:51:33;96178.78;;;19.30;100.00
32933;BME280;19444;50.518;10.870;2022-08-19T06:54:38;96175.13;;;19.15;100.00
32933;BME280;19444;50.518;10.870;2022-08-19T06:57:52;96179.38;;;19.16;100.00
32933;BME280;19444;50.518;10.870;2022-08-19T07:00:50;96177.06;;;19.18;100.00
32933;BME280;19444;50.518;10.870;2022-08-19T07:03:47;96175.44;;;19.10;100.00
32933;BME280;19444;50.518;10.870;2022-08-19T07:06:46;96175.41;;;19.07;100.00
32933;BME280;19444;50.518;10.870;2022-08-19T07:09:51;96176.97;;;19.41;100.00
32933;BME280;19444;50.518;10.870;2022-08-19T07:12:56;96171.66;;;19.18;100.00
32933;BME280;19444;50.518;10.870;2022-08-19T07:15:53;96166.75;;;19.31;100.00
32933;BME280;19444;50.518;10.870;2022-08-19T07:18:51;96161.94;;;19.17;100.00
32933;BME280;19444;50.518;10.870;2022-08-19T07:21:50;96168.88;;;19.11;100.00
32933;BME280;19444;50.518;10.870;2022-08-19T07:24:49;96171.31;;;19.23;100.00
32933;BME280;19444;50.518;10.870;2022-08-19T07:27:49;96174.34;;;19.15;100.00
32933;BME280;19444;50.518;10.870;2022-08-19T07:30:50;96172.88;;;19.24;100.00
32933;BME280;19444;50.518;10.870;2022-08-19T07:33:51;96184.63;;;19.32;100.00
32933;BME280;19444;50.518;10.870;2022-08-19T07:36:50;96189.28;;;19.31;100.00
32933;BME280;19444;50.518;10.870;2022-08-19T07:39:48;96189.22;;;19.28;100.00
32933;BME280;19444;50.518;10.870;2022-08-19T07:42:45;96182.78;;;19.40;100.00
32933;BME280;19444;50.518;10.870;2022-08-19T07:45:42;96192.00;;;19.31;100.00
32933;BME280;19444;50.518;10.870;2022-08-19T07:48:42;96200.44;;;19.23;100.00
32933;BME280;19444;50.518;10.870;2022-08-19T07:51:40;96206.72;;;19.30;100.00
32933;BME280;19444;50.518;10.870;2022-08-19T07:54:39;96210.28;;;19.38;100.00
32933;BME280;19444;50.518;10.870;2022-08-19T07:57:37;96203.78;;;19.46;100.00
32933;BME280;19444;50.518;10.870;2022-08-19T08:00:35;96205.91;;;19.60;100.00
32933;BME280;19444;50.518;10.870;2022-08-19T08:03:32;96201.63;;;19.59;100.00
32933;BME280;19444;50.518;10.870;2022-08-19T08:06:48;96208.56;;;19.56;100.00
32933;BME280;19444;50.518;10.870;2022-08-19T08:10:06;96210.59;;;19.63;100.00
32933;BME280;19444;50.518;10.870;2022-08-19T08:13:16;96212.09;;;19.57;100.00
32933;BME280;19444;50.518;10.870;2022-08-19T08:16:13;96210.78;;;19.47;100.00
32933;BME280;19444;50.518;10.870;2022-08-19T08:19:10;96221.44;;;19.59;100.00
32933;BME280;19444;50.518;10.870;2022-08-19T08:22:20;96212.91;;;19.61;100.00
32933;BME280;19444;50.518;10.870;2022-08-19T08:25:36;96205.81;;;19.90;100.00
32933;BME280;19444;50.518;10.870;2022-08-19T08:28:34;96216.19;;;19.77;100.00
32933;BME280;19444;50.518;10.870;2022-08-19T08:31:31;96218.44;;;19.72;100.00
32933;BME280;19444;50.518;10.870;2022-08-19T08:34:30;96222.41;;;19.78;100.00
32933;BME280;19444;50.518;10.870;2022-08-19T08:37:27;96227.09;;;19.81;100.00
32933;BME280;19444;50.518;10.870;2022-08-19T08:40:33;96229.25;;;19.65;100.00
32933;BME280;19444;50.518;10.870;2022-08-19T08:43:37;96228.47;;;19.64;100.00
32933;BME280;19444;50.518;10.870;2022-08-19T08:46:46;96233.59;;;19.73;100.00
32933;BME280;19444;50.518;10.870;2022-08-19T08:52:54;96227.84;;;19.78;100.00
32933;BME280;19444;50.518;10.870;2022-08-19T08:55:52;96226.97;;;20.11;100.00
32933;BME280;19444;50.518;10.870;2022-08-19T08:59:06;96232.28;;;19.97;100.00
32933;BME280;19444;50.518;10.870;2022-08-19T09:02:05;96218.28;;;19.95;100.00
32933;BME280;19444;50.518;10.870;2022-08-19T09:05:02;96213.78;;;20.13;100.00
32933;BME280;19444;50.518;10.870;2022-08-19T09:08:26;96215.25;;;20.03;100.00
32933;BME280;19444;50.518;10.870;2022-08-19T09:11:57;96225.69;;;19.98;100.00
32933;BME280;19444;50.518;10.870;2022-08-19T09:15:07;96218.31;;;19.98;100.00
32933;BME280;19444;50.518;10.870;2022-08-19T09:18:05;96220.69;;;20.03;100.00
32933;BME280;19444;50.518;10.870;2022-08-19T09:21:03;96228.00;;;19.96;100.00
32933;BME280;19444;50.518;10.870;2022-08-19T09:24:01;96224.28;;;19.74;100.00
32933;BME280;19444;50.518;10.870;2022-08-19T09:26:59;96221.06;;;20.02;100.00
32933;BME280;19444;50.518;10.870;2022-08-19T09:29:59;96222.59;;;19.99;100.00
32933;BME280;19444;50.518;10.870;2022-08-19T09:32:57;96226.09;;;19.59;100.00
32933;BME280;19444;50.518;10.870;2022-08-19T09:36:09;96230.97;;;19.80;100.00
32933;BME280;19444;50.518;10.870;2022-08-19T09:39:06;96231.84;;;19.91;100.00
32933;BME280;19444;50.518;10.870;2022-08-19T09:42:11;96222.81;;;19.83;100.00
32933;BME280;19444;50.518;10.870;2022-08-19T09:45:25;96218.00;;;20.07;100.00
32933;BME280;19444;50.518;10.870;2022-08-19T09:48:22;96219.38;;;20.31;100.00
32933;BME280;19444;50.518;10.870;2022-08-19T09:51:24;96218.03;;;20.10;100.00
32933;BME280;19444;50.518;10.870;2022-08-19T09:54:21;96210.44;;;20.30;100.00
32933;BME280;19444;50.518;10.870;2022-08-19T09:57:20;96206.66;;;20.45;100.00
32933;BME280;19444;50.518;10.870;2022-08-19T10:00:17;96216.78;;;20.01;100.00
32933;BME280;19444;50.518;10.870;2022-08-19T10:03:14;96218.59;;;20.30;100.00
32933;BME280;19444;50.518;10.870;2022-08-19T10:06:11;96220.97;;;19.91;100.00
32933;BME280;19444;50.518;10.870;2022-08-19T10:09:11;96209.94;;;20.17;100.00
32933;BME280;19444;50.518;10.870;2022-08-19T10:12:08;96216.19;;;20.22;100.00
32933;BME280;19444;50.518;10.870;2022-08-19T10:15:07;96215.66;;;20.05;100.00
32933;BME280;19444;50.518;10.870;2022-08-19T10:18:06;96212.25;;;20.19;100.00
32933;BME280;19444;50.518;10.870;2022-08-19T10:21:10;96205.84;;;20.41;100.00
32933;BME280;19444;50.518;10.870;2022-08-19T10:24:07;96213.56;;;20.32;100.00
32933;BME280;19444;50.518;10.870;2022-08-19T10:27:05;96202.44;;;20.52;100.00
32933;BME280;19444;50.518;10.870;2022-08-19T10:30:05;96204.50;;;20.69;100.00
32933;BME280;19444;50.518;10.870;2022-08-19T10:33:06;96216.13;;;20.66;100.00
32933;BME280;19444;50.518;10.870;2022-08-19T10:36:11;96211.50;;;20.70;100.00
32933;BME280;19444;50.518;10.870;2022-08-19T10:39:09;96209.22;;;20.79;100.00
32933;BME280;19444;50.518;10.870;2022-08-19T10:42:08;96211.25;;;20.96;100.00
32933;BME280;19444;50.518;10.870;2022-08-19T10:45:07;96203.69;;;20.65;100.00
32933;BME280;19444;50.518;10.870;2022-08-19T10:48:06;96210.34;;;20.74;100.00
32933;BME280;19444;50.518;10.870;2022-08-19T10:51:09;96216.63;;;20.82;100.00
32933;BME280;19444;50.518;10.870;2022-08-19T10:54:26;96215.94;;;20.96;100.00
32933;BME280;19444;50.518;10.870;2022-08-19T10:57:43;96223.34;;;21.02;100.00
32933;BME280;19444;50.518;10.870;2022-08-19T11:01:00;96227.31;;;21.19;100.00
32933;BME280;19444;50.518;10.870;2022-08-19T11:04:01;96222.38;;;21.46;100.00
32933;BME280;19444;50.518;10.870;2022-08-19T11:06:59;96235.88;;;21.14;100.00
32933;BME280;19444;50.518;10.870;2022-08-19T11:09:56;96228.16;;;21.27;100.00
32933;BME280;19444;50.518;10.870;2022-08-19T11:12:53;96232.88;;;21.37;100.00
32933;BME280;19444;50.518;10.870;2022-08-19T11:16:04;96232.41;;;21.24;100.00
32933;BME280;19444;50.518;10.870;2022-08-19T11:19:05;96229.56;;;20.99;100.00
32933;BME280;19444;50.518;10.870;2022-08-19T11:22:03;96219.88;;;21.06;100.00
32933;BME280;19444;50.518;10.870;2022-08-19T11:25:00;96228.19;;;21.38;100.00
32933;BME280;19444;50.518;10.870;2022-08-19T11:27:58;96233.09;;;21.04;100.00
32933;BME280;19444;50.518;10.870;2022-08-19T11:30:55;96226.72;;;21.62;100.00
32933;BME280;19444;50.518;10.870;2022-08-19T11:33:52;96234.78;;;21.29;100.00
32933;BME280;19444;50.518;10.870;2022-08-19T11:36:51;96231.97;;;21.15;100.00
32933;BME280;19444;50.518;10.870;2022-08-19T11:39:48;96232.13;;;21.40;100.00
32933;BME280;19444;50.518;10.870;2022-08-19T11:42:49;96229.00;;;21.45;100.00
32933;BME280;19444;50.518;10.870;2022-08-19T11:45:53;96218.53;;;21.62;100.00
32933;BME280;19444;50.518;10.870;2022-08-19T11:48:51;96209.19;;;21.66;100.00
32933;BME280;19444;50.518;10.870;2022-08-19T11:51:48;96205.69;;;21.62;100.00
32933;BME280;19444;50.518;10.870;2022-08-19T11:54:49;96214.28;;;21.71;100.00
32933;BME280;19444;50.518;10.870;2022-08-19T11:57:46;96212.31;;;21.75;100.00
32933;BME280;19444;50.518;10.870;2022-08-19T12:00:43;96212.28;;;21.54;100.00
32933;BME280;19444;50.518;10.870;2022-08-19T12:03:42;96207.22;;;21.52;100.00
32933;BME280;19444;50.518;10.870;2022-08-19T12:06:41;96212.31;;;21.72;100.00
32933;BME280;19444;50.518;10.870;2022-08-19T12:09:38;96205.25;;;21.46;100.00
32933;BME280;19444;50.518;10.870;2022-08-19T12:12:38;96205.63;;;21.44;100.00
32933;BME280;19444;50.518;10.870;2022-08-19T12:15:40;96202.97;;;21.58;100.00
32933;BME280;19444;50.518;10.870;2022-08-19T12:18:38;96194.41;;;21.71;100.00
32933;BME280;19444;50.518;10.870;2022-08-19T12:21:35;96190.16;;;21.98;100.00
32933;BME280;19444;50.518;10.870;2022-08-19T12:24:32;96176.88;;;21.82;100.00
32933;BME280;19444;50.518;10.870;2022-08-19T12:27:31;96180.00;;;21.70;98.16
32933;BME280;19444;50.518;10.870;2022-08-19T12:30:38;96181.97;;;21.88;97.51
32933;BME280;19444;50.518;10.870;2022-08-19T12:33:35;96175.00;;;22.22;91.23
32933;BME280;19444;50.518;10.870;2022-08-19T12:36:32;96177.25;;;22.77;94.70
32933;BME280;19444;50.518;10.870;2022-08-19T12:39:36;96187.44;;;22.37;89.18
32933;BME280;19444;50.518;10.870;2022-08-19T12:42:33;96185.50;;;22.41;88.06
32933;BME280;19444;50.518;10.870;2022-08-19T12:45:30;96186.25;;;21.99;92.01
32933;BME280;19444;50.518;10.870;2022-08-19T12:48:26;96191.34;;;22.15;88.85
32933;BME280;19444;50.518;10.870;2022-08-19T12:51:30;96181.56;;;22.39;91.36
32933;BME280;19444;50.518;10.870;2022-08-19T12:54:29;96197.94;;;21.93;90.32
32933;BME280;19444;50.518;10.870;2022-08-19T12:57:28;96194.06;;;22.08;94.11
32933;BME280;19444;50.518;10.870;2022-08-19T13:00:29;96190.56;;;22.14;94.65
32933;BME280;19444;50.518;10.870;2022-08-19T13:03:29;96189.78;;;22.32;88.96
32933;BME280;19444;50.518;10.870;2022-08-19T13:06:26;96192.91;;;22.20;97.30
32933;BME280;19444;50.518;10.870;2022-08-19T13:09:23;96198.34;;;22.12;93.43
32933;BME280;19444;50.518;10.870;2022-08-19T13:12:20;96188.56;;;22.68;93.22
32933;BME280;19444;50.518;10.870;2022-08-19T13:15:22;96199.16;;;22.09;93.04
32933;BME280;19444;50.518;10.870;2022-08-19T13:18:20;96193.28;;;22.47;92.79
32933;BME280;19444;50.518;10.870;2022-08-19T13:21:21;96177.28;;;22.31;88.56
32933;BME280;19444;50.518;10.870;2022-08-19T13:24:19;96187.84;;;22.43;89.32
32933;BME280;19444;50.518;10.870;2022-08-19T13:27:16;96193.28;;;22.36;91.20
32933;BME280;19444;50.518;10.870;2022-08-19T13:30:15;96208.13;;;22.28;90.59
32933;BME280;19444;50.518;10.870;2022-08-19T13:33:31;96208.88;;;22.46;94.41
32933;BME280;19444;50.518;10.870;2022-08-19T13:36:30;96215.13;;;22.36;96.92
32933;BME280;19444;50.518;10.870;2022-08-19T13:39:27;96215.13;;;22.47;94.62
32933;BME280;19444;50.518;10.870;2022-08-19T13:42:23;96204.22;;;22.36;90.00
32933;BME280;19444;50.518;10.870;2022-08-19T13:45:24;96210.84;;;22.35;94.48
32933;BME280;19444;50.518;10.870;2022-08-19T13:48:22;96213.97;;;22.16;91.36
32933;BME280;19444;50.518;10.870;2022-08-19T13:51:20;96211.97;;;22.02;94.93
32933;BME280;19444;50.518;10.870;2022-08-19T13:54:17;96206.88;;;21.93;96.19
32933;BME280;19444;50.518;10.870;2022-08-19T13:57:14;96208.84;;;21.89;97.49
32933;BME280;19444;50.518;10.870;2022-08-19T14:00:16;96215.88;;;22.04;96.96
32933;BME280;19444;50.518;10.870;2022-08-19T14:03:16;96213.94;;;22.12;97.77
32933;BME280;19444;50.518;10.870;2022-08-19T14:06:13;96219.72;;;21.71;96.69
32933;BME280;19444;50.518;10.870;2022-08-19T14:09:10;96221.72;;;21.89;97.32
32933;BME280;19444;50.518;10.870;2022-08-19T14:12:07;96204.94;;;21.83;96.71
32933;BME280;19444;50.518;10.870;2022-08-19T14:15:08;96213.91;;;21.91;98.40
32933;BME280;19444;50.518;10.870;2022-08-19T14:18:05;96204.94;;;21.90;96.90
32933;BME280;19444;50.518;10.870;2022-08-19T14:21:02;96201.47;;;21.97;94.82
32933;BME280;19444;50.518;10.870;2022-08-19T14:24:01;96213.53;;;21.89;97.16
32933;BME280;19444;50.518;10.870;2022-08-19T14:26:59;96207.28;;;21.92;97.01
32933;BME280;19444;50.518;10.870;2022-08-19T14:29:56;96215.03;;;21.75;98.84
32933;BME280;19444;50.518;10.870;2022-08-19T14:32:55;96207.66;;;21.72;97.17
32933;BME280;19444;50.518;10.870;2022-08-19T14:35:51;96192.09;;;21.91;95.35
32933;BME280;19444;50.518;10.870;2022-08-19T14:38:55;96203.38;;;21.71;97.77
32933;BME280;19444;50.518;10.870;2022-08-19T14:41:54;96197.91;;;21.71;96.78
32933;BME280;19444;50.518;10.870;2022-08-19T14:44:51;96201.81;;;21.84;96.30
32933;BME280;19444;50.518;10.870;2022-08-19T14:47:47;96199.44;;;21.62;97.53
32933;BME280;19444;50.518;10.870;2022-08-19T14:50:45;96193.25;;;21.93;99.08
32933;BME280;19444;50.518;10.870;2022-08-19T14:53:42;96189.31;;;21.62;97.86
32933;BME280;19444;50.518;10.870;2022-08-19T14:56:40;96182.69;;;21.67;98.54
32933;BME280;19444;50.518;10.870;2022-08-19T14:59:37;96176.44;;;21.55;98.69
32933;BME280;19444;50.518;10.870;2022-08-19T15:02:34;96180.75;;;21.64;100.00
32933;BME280;19444;50.518;10.870;2022-08-19T15:05:31;96172.97;;;21.69;95.75
32933;BME280;19444;50.518;10.870;2022-08-19T15:08:31;96169.81;;;21.56;99.31
32933;BME280;19444;50.518;10.870;2022-08-19T15:11:28;96165.19;;;21.89;97.89
32933;BME280;19444;50.518;10.870;2022-08-19T15:14:27;96167.13;;;21.81;94.65
32933;BME280;19444;50.518;10.870;2022-08-19T15:17:24;96167.91;;;21.75;100.00
32933;BME280;19444;50.518;10.870;2022-08-19T15:20:41;96166.34;;;21.74;100.00
32933;BME280;19444;50.518;10.870;2022-08-19T15:23:42;96163.63;;;21.84;96.28
32933;BME280;19444;50.518;10.870;2022-08-19T15:26:41;96161.28;;;21.83;96.89
32933;BME280;19444;50.518;10.870;2022-08-19T15:29:39;96171.06;;;22.05;96.83
32933;BME280;19444;50.518;10.870;2022-08-19T15:32:38;96176.09;;;22.03;98.68
32933;BME280;19444;50.518;10.870;2022-08-19T15:35:35;96165.19;;;21.78;100.00
32933;BME280;19444;50.518;10.870;2022-08-19T15:38:33;96174.53;;;22.02;98.58